createdAt,value
2023-01-31T00:01:38.723Z,12.63
2023-01-31T00:04:14.516Z,12.65
2023-01-31T00:06:44.684Z,10.15
2023-01-31T00:09:13.430Z,15.20
2023-01-31T00:11:40.782Z,14.90
2023-01-31T00:14:10.781Z,11.23
2023-01-31T00:16:38.402Z,11.10
2023-01-31T00:19:05.944Z,8.75
2023-01-31T00:21:33.252Z,11.82
2023-01-31T00:24:00.574Z,13.00
2023-01-31T00:26:33.117Z,10.50
2023-01-31T00:29:02.581Z,11.80
2023-01-31T00:31:31.590Z,10.57
2023-01-31T00:33:59.040Z,9.45
2023-01-31T00:36:29.956Z,10.45
2023-01-31T00:38:59.427Z,10.80
2023-01-31T00:41:29.607Z,8.88
2023-01-31T00:44:00.920Z,12.10
2023-01-31T00:46:28.736Z,10.85
2023-01-31T00:48:58.946Z,9.77
2023-01-31T00:51:27.090Z,11.07
2023-01-31T00:53:54.873Z,7.32
2023-01-31T00:56:24.268Z,8.80
2023-01-31T00:58:52.864Z,7.90
2023-01-31T01:01:29.678Z,8.07
2023-01-31T01:03:57.783Z,7.35
2023-01-31T01:06:25.578Z,6.28
2023-01-31T01:08:53.314Z,9.10
2023-01-31T01:11:26.240Z,6.28
2023-01-31T01:13:53.513Z,9.38
2023-01-31T01:16:27.723Z,8.57
2023-01-31T01:18:57.750Z,5.63
2023-01-31T01:21:28.229Z,6.57
2023-01-31T01:24:01.284Z,6.40
2023-01-31T01:26:32.123Z,6.45
2023-01-31T01:29:01.540Z,4.90
2023-01-31T01:31:31.008Z,7.13
2023-01-31T01:34:01.594Z,8.13
2023-01-31T01:36:29.762Z,9.80
2023-01-31T01:38:57.104Z,8.57
2023-01-31T01:41:25.126Z,6.63
2023-01-31T01:43:58.505Z,8.57
2023-01-31T01:46:32.763Z,7.97
2023-01-31T01:49:33.576Z,7.00
2023-01-31T01:52:05.835Z,7.95
2023-01-31T01:54:53.572Z,8.30
2023-01-31T01:57:28.239Z,9.55
2023-01-31T02:00:11.159Z,8.77
2023-01-31T02:02:46.518Z,9.13
2023-01-31T02:05:20.503Z,8.05
2023-01-31T02:07:47.924Z,9.77
2023-01-31T02:10:20.830Z,8.15
2023-01-31T02:12:47.808Z,8.35
2023-01-31T02:15:15.295Z,10.18
2023-01-31T02:17:42.781Z,8.75
2023-01-31T02:20:09.976Z,8.50
2023-01-31T02:23:14.497Z,9.57
2023-01-31T02:25:49.363Z,7.85
2023-01-31T02:28:41.571Z,11.25
2023-01-31T02:31:46.303Z,10.00
2023-01-31T02:34:33.803Z,5.72
2023-01-31T02:37:24.316Z,6.97
2023-01-31T02:40:16.186Z,8.88
2023-01-31T02:43:07.434Z,8.13
2023-01-31T02:45:53.607Z,7.13
2023-01-31T02:48:32.751Z,8.70
2023-01-31T02:51:33.071Z,5.95
2023-01-31T02:54:06.087Z,5.15
2023-01-31T02:56:37.097Z,4.88
2023-01-31T02:59:22.302Z,5.75
2023-01-31T03:01:58.987Z,5.30
2023-01-31T03:04:31.324Z,4.97
2023-01-31T03:07:29.685Z,5.35
2023-01-31T03:10:22.041Z,4.82
2023-01-31T03:13:12.241Z,2.92
2023-01-31T03:16:07.266Z,4.68
2023-01-31T03:19:13.710Z,5.22
2023-01-31T03:21:57.972Z,3.67
2023-01-31T03:24:30.599Z,4.00
2023-01-31T03:27:02.671Z,4.68
2023-01-31T03:29:35.291Z,8.57
2023-01-31T03:32:10.143Z,8.77
2023-01-31T03:34:37.912Z,6.32
2023-01-31T03:37:08.872Z,5.07
2023-01-31T03:40:12.632Z,5.25
2023-01-31T03:42:51.625Z,4.20
2023-01-31T03:45:34.437Z,6.10
2023-01-31T03:48:06.777Z,7.40
2023-01-31T03:50:41.613Z,7.22
2023-01-31T03:53:12.029Z,8.32
2023-01-31T03:55:50.266Z,7.15
2023-01-31T03:58:21.025Z,6.32
2023-01-31T04:00:50.559Z,4.57
2023-01-31T04:03:37.279Z,7.30
2023-01-31T04:06:05.916Z,7.18
2023-01-31T04:08:34.522Z,8.32
2023-01-31T04:11:11.686Z,7.53
2023-01-31T04:13:39.354Z,5.95
2023-01-31T04:16:06.914Z,5.80
2023-01-31T04:18:36.690Z,8.35
2023-01-31T04:21:05.439Z,5.72
2023-01-31T04:23:32.607Z,4.95
2023-01-31T04:25:59.970Z,5.75
2023-01-31T04:28:26.975Z,4.40
2023-01-31T04:30:55.440Z,5.30
2023-01-31T04:33:23.165Z,6.10
2023-01-31T04:35:53.114Z,5.57
2023-01-31T04:38:20.263Z,6.38
2023-01-31T04:40:47.258Z,6.78
2023-01-31T04:43:14.636Z,6.75
2023-01-31T04:45:41.714Z,5.90
2023-01-31T04:48:09.226Z,4.95
2023-01-31T04:50:36.636Z,4.70
2023-01-31T04:53:04.915Z,4.30
2023-01-31T04:55:32.517Z,4.68
2023-01-31T04:57:59.875Z,4.75
2023-01-31T05:00:27.327Z,5.50
2023-01-31T05:02:54.426Z,6.03
2023-01-31T05:05:21.914Z,6.30
2023-01-31T05:07:49.069Z,4.65
2023-01-31T05:10:16.388Z,5.57
2023-01-31T05:12:43.405Z,5.25
2023-01-31T05:15:11.922Z,5.85
2023-01-31T05:17:39.163Z,4.72
2023-01-31T05:20:07.081Z,4.55
2023-01-31T05:22:34.591Z,6.63
2023-01-31T05:25:01.739Z,3.70
2023-01-31T05:27:28.808Z,4.10
2023-01-31T05:29:56.059Z,4.38
2023-01-31T05:32:23.147Z,6.18
2023-01-31T05:34:50.192Z,8.75
2023-01-31T05:37:17.255Z,6.80
2023-01-31T05:39:44.396Z,8.60
2023-01-31T05:42:11.354Z,7.13
2023-01-31T05:44:38.460Z,10.07
2023-01-31T05:47:06.039Z,8.35
2023-01-31T05:49:33.824Z,4.57
2023-01-31T05:52:01.962Z,7.85
2023-01-31T05:54:29.142Z,7.15
2023-01-31T05:56:56.213Z,8.98
2023-01-31T05:59:23.605Z,9.73
2023-01-31T06:01:51.608Z,10.52
2023-01-31T06:04:18.681Z,6.32
2023-01-31T06:06:45.674Z,11.77
2023-01-31T06:09:12.918Z,12.20
2023-01-31T06:11:40.072Z,7.63
2023-01-31T06:14:08.343Z,11.27
2023-01-31T06:16:35.572Z,5.80
2023-01-31T06:19:02.961Z,8.25
2023-01-31T06:21:30.703Z,7.32
2023-01-31T06:23:58.845Z,10.82
2023-01-31T06:26:25.828Z,7.50
2023-01-31T06:28:52.893Z,5.45
2023-01-31T06:31:20.089Z,7.30
2023-01-31T06:33:48.195Z,8.57
2023-01-31T06:36:18.932Z,8.10
2023-01-31T06:38:51.513Z,6.93
2023-01-31T06:41:19.639Z,7.25
2023-01-31T06:43:46.701Z,8.27
2023-01-31T06:46:13.795Z,8.35
2023-01-31T06:48:40.859Z,7.38
2023-01-31T06:51:07.907Z,9.93
2023-01-31T06:53:34.899Z,11.93
2023-01-31T06:56:02.060Z,11.38
2023-01-31T06:58:29.067Z,10.95
2023-01-31T07:00:56.909Z,12.43
2023-01-31T07:03:23.956Z,9.38
2023-01-31T07:05:51.105Z,11.15
2023-01-31T07:08:18.137Z,9.90
2023-01-31T07:10:45.390Z,9.50
2023-01-31T07:13:12.551Z,15.50
2023-01-31T07:15:39.819Z,12.30
2023-01-31T07:18:07.295Z,13.07
2023-01-31T07:20:34.767Z,13.68
2023-01-31T07:23:01.874Z,13.93
2023-01-31T07:25:32.608Z,10.27
2023-01-31T07:28:00.889Z,9.63
2023-01-31T07:30:28.112Z,10.48
2023-01-31T07:32:55.416Z,6.32
2023-01-31T07:35:22.625Z,7.85
2023-01-31T07:37:53.647Z,7.68
2023-01-31T07:40:20.998Z,10.70
2023-01-31T07:42:48.018Z,10.70
2023-01-31T07:45:23.365Z,8.57
2023-01-31T07:47:51.776Z,10.38
2023-01-31T07:50:19.653Z,17.33
2023-01-31T07:52:49.290Z,10.98
2023-01-31T07:55:16.573Z,10.25
2023-01-31T07:57:43.667Z,11.63
2023-01-31T08:00:31.912Z,10.02
2023-01-31T08:03:17.518Z,9.77
2023-01-31T08:05:47.574Z,8.43
2023-01-31T08:08:15.124Z,6.30
2023-01-31T08:10:42.238Z,5.80
2023-01-31T08:13:11.693Z,11.13
2023-01-31T08:15:38.890Z,10.73
2023-01-31T08:18:07.159Z,7.82
2023-01-31T08:20:34.762Z,6.65
2023-01-31T08:23:01.795Z,7.05
2023-01-31T08:25:30.711Z,7.68
2023-01-31T08:27:58.627Z,12.77
2023-01-31T08:30:25.819Z,8.05
2023-01-31T08:32:53.040Z,16.15
2023-01-31T08:35:20.384Z,13.27
2023-01-31T08:37:49.114Z,10.85
2023-01-31T08:40:16.176Z,9.20
2023-01-31T08:42:43.230Z,13.80
2023-01-31T08:45:10.707Z,11.02
2023-01-31T08:47:40.369Z,10.93
2023-01-31T08:50:15.850Z,8.15
2023-01-31T08:52:54.030Z,9.18
2023-01-31T08:55:22.231Z,9.77
2023-01-31T08:57:59.435Z,10.98
2023-01-31T09:00:27.589Z,13.75
2023-01-31T09:03:00.130Z,9.13
2023-01-31T09:05:29.005Z,7.53
2023-01-31T09:07:56.283Z,7.55
2023-01-31T09:10:24.882Z,7.38
2023-01-31T09:12:52.113Z,8.13
2023-01-31T09:15:19.534Z,8.43
2023-01-31T09:17:46.894Z,7.43
2023-01-31T09:20:13.930Z,7.18
2023-01-31T09:22:41.075Z,7.97
2023-01-31T09:25:09.179Z,8.52
2023-01-31T09:27:38.678Z,8.73
2023-01-31T09:30:09.863Z,10.32
2023-01-31T09:32:38.976Z,8.90
2023-01-31T09:35:06.359Z,8.52
2023-01-31T09:37:33.509Z,6.05
2023-01-31T09:40:00.570Z,6.65
2023-01-31T09:42:39.135Z,9.48
2023-01-31T09:45:13.068Z,9.20
2023-01-31T09:47:47.683Z,6.90
2023-01-31T09:50:29.658Z,5.93
2023-01-31T09:52:57.872Z,6.68
2023-01-31T09:56:07.033Z,7.28
2023-01-31T09:58:55.709Z,9.10
2023-01-31T10:01:49.264Z,4.50
2023-01-31T10:04:19.297Z,5.68
2023-01-31T10:07:01.694Z,5.07
2023-01-31T10:09:52.164Z,6.97
2023-01-31T10:12:29.420Z,9.00
2023-01-31T10:15:01.667Z,7.35
2023-01-31T10:17:44.574Z,8.50
2023-01-31T10:20:42.311Z,9.35
2023-01-31T10:23:27.984Z,13.77
2023-01-31T10:26:01.934Z,7.82
2023-01-31T10:28:50.935Z,7.07
2023-01-31T10:31:37.110Z,7.78
2023-01-31T10:34:13.712Z,11.07
2023-01-31T10:37:02.969Z,5.10
2023-01-31T10:39:35.595Z,3.67
2023-01-31T10:42:02.621Z,4.30
2023-01-31T10:44:47.434Z,6.68
2023-01-31T10:47:16.766Z,4.53
2023-01-31T10:49:49.742Z,4.82
2023-01-31T10:52:49.835Z,3.80
2023-01-31T10:55:39.791Z,4.10
2023-01-31T10:58:15.219Z,8.02
2023-01-31T11:00:42.918Z,6.85
2023-01-31T11:03:14.277Z,4.03
2023-01-31T11:05:56.695Z,7.40
2023-01-31T11:08:36.624Z,7.40
2023-01-31T11:11:12.811Z,7.40
2023-01-31T11:13:41.073Z,6.53
2023-01-31T11:16:12.087Z,3.92
2023-01-31T11:18:50.556Z,4.50
2023-01-31T11:21:23.033Z,6.97
2023-01-31T11:23:51.493Z,5.77
2023-01-31T11:26:36.839Z,5.40
2023-01-31T11:29:32.685Z,3.58
2023-01-31T11:32:02.344Z,4.80
2023-01-31T11:34:31.119Z,6.40
2023-01-31T11:37:16.012Z,8.40
2023-01-31T11:39:57.372Z,5.85
2023-01-31T11:42:24.807Z,5.20
2023-01-31T11:45:17.234Z,4.18
2023-01-31T11:47:47.867Z,3.78
2023-01-31T11:50:32.907Z,3.63
2023-01-31T11:53:03.500Z,5.80
2023-01-31T11:55:39.644Z,6.03
2023-01-31T11:58:34.445Z,4.53
2023-01-31T12:01:09.083Z,7.00
2023-01-31T12:03:39.100Z,2.55
2023-01-31T12:06:11.066Z,2.85
2023-01-31T12:08:41.272Z,6.75
2023-01-31T12:11:20.465Z,3.55
2023-01-31T12:13:53.069Z,5.63
2023-01-31T12:16:26.514Z,4.50
2023-01-31T12:19:11.916Z,4.07
2023-01-31T12:21:59.187Z,5.22
2023-01-31T12:24:44.342Z,6.10
2023-01-31T12:27:27.875Z,6.90
2023-01-31T12:32:30.850Z,9.15
2023-01-31T12:35:24.933Z,3.85
2023-01-31T12:38:27.897Z,4.65
2023-01-31T12:41:19.922Z,3.55
2023-01-31T12:44:28.136Z,8.10
2023-01-31T12:47:22.817Z,5.68
2023-01-31T12:50:07.109Z,5.55
2023-01-31T12:53:03.482Z,7.65
2023-01-31T12:55:35.979Z,7.40
2023-01-31T12:58:28.990Z,5.33
2023-01-31T13:01:11.206Z,6.83
2023-01-31T13:04:15.603Z,5.68
2023-01-31T13:06:49.585Z,7.45
2023-01-31T13:09:33.377Z,7.43
2023-01-31T13:12:09.231Z,7.30
2023-01-31T13:14:42.831Z,6.20
2023-01-31T13:17:17.338Z,5.43
2023-01-31T13:19:51.406Z,5.25
2023-01-31T13:22:28.005Z,8.55
2023-01-31T13:25:14.246Z,5.00
2023-01-31T13:27:49.206Z,7.10
2023-01-31T13:30:38.329Z,9.70
2023-01-31T13:33:18.774Z,4.57
2023-01-31T13:35:50.841Z,7.93
2023-01-31T13:38:21.372Z,4.93
2023-01-31T13:40:52.702Z,4.72
2023-01-31T13:43:20.727Z,8.82
2023-01-31T13:45:55.180Z,7.15
2023-01-31T13:48:28.259Z,5.20
2023-01-31T13:51:21.240Z,9.32
2023-01-31T13:54:17.961Z,4.75
2023-01-31T13:56:51.221Z,6.43
2023-01-31T13:59:24.476Z,3.90
2023-01-31T14:04:20.107Z,10.52
2023-01-31T14:06:55.916Z,7.22
2023-01-31T14:09:32.020Z,8.43
2023-01-31T14:12:20.464Z,7.07
2023-01-31T14:14:51.560Z,5.22
2023-01-31T14:17:21.487Z,4.72
2023-01-31T14:19:49.388Z,5.18
2023-01-31T14:22:18.516Z,6.90
2023-01-31T14:24:53.406Z,4.18
2023-01-31T14:27:36.874Z,5.63
2023-01-31T14:30:07.103Z,6.88
2023-01-31T14:33:11.331Z,7.40
2023-01-31T14:35:50.346Z,9.48
2023-01-31T14:38:23.253Z,3.78
2023-01-31T14:41:44.360Z,6.80
2023-01-31T14:44:37.970Z,7.15
2023-01-31T14:47:36.818Z,5.55
2023-01-31T14:50:32.460Z,7.90
2023-01-31T14:53:37.216Z,7.30
2023-01-31T14:56:18.543Z,6.50
2023-01-31T14:58:47.721Z,6.93
2023-01-31T15:01:20.606Z,5.97
2023-01-31T15:03:55.785Z,5.28
2023-01-31T15:06:37.829Z,4.35
2023-01-31T15:09:17.253Z,4.55
2023-01-31T15:11:57.665Z,9.52
2023-01-31T15:14:49.264Z,9.15
2023-01-31T15:17:35.972Z,4.78
2023-01-31T15:20:15.265Z,5.30
2023-01-31T15:22:44.453Z,6.43
2023-01-31T15:25:33.855Z,4.32
2023-01-31T15:28:01.908Z,7.50
2023-01-31T15:30:34.210Z,7.10
2023-01-31T15:33:15.673Z,6.30
2023-01-31T15:36:25.935Z,5.63
2023-01-31T15:38:55.746Z,5.28
2023-01-31T15:41:40.919Z,5.88
2023-01-31T15:44:25.698Z,6.63
2023-01-31T15:46:55.095Z,4.95
2023-01-31T15:49:39.135Z,5.35
2023-01-31T15:52:22.655Z,4.68
2023-01-31T15:55:02.721Z,5.30
2023-01-31T15:57:39.565Z,4.82
2023-01-31T16:00:07.498Z,5.32
2023-01-31T16:02:38.192Z,4.18
2023-01-31T16:05:06.930Z,3.90
2023-01-31T16:07:35.116Z,5.53
2023-01-31T16:10:02.717Z,8.57
2023-01-31T16:12:32.081Z,6.43
2023-01-31T16:15:05.546Z,9.02
2023-01-31T16:19:59.827Z,11.27
2023-01-31T16:22:28.546Z,7.70
2023-01-31T16:24:58.467Z,6.95
2023-01-31T16:27:29.177Z,4.35
2023-01-31T16:29:59.353Z,4.25
2023-01-31T16:32:32.961Z,3.78
2023-01-31T16:35:06.361Z,7.63
2023-01-31T16:40:24.317Z,6.40
2023-01-31T16:43:09.786Z,6.40
2023-01-31T16:45:37.362Z,5.75
2023-01-31T16:48:23.339Z,7.55
2023-01-31T16:50:53.089Z,5.88
2023-01-31T16:53:40.314Z,10.98
2023-01-31T16:56:19.474Z,5.55
2023-01-31T16:59:04.680Z,5.03
2023-01-31T17:01:35.097Z,5.38
2023-01-31T17:04:21.991Z,8.07
2023-01-31T17:07:00.884Z,4.78
2023-01-31T17:09:28.572Z,6.40
2023-01-31T17:11:56.458Z,7.13
2023-01-31T17:14:24.022Z,7.15
2023-01-31T17:16:52.904Z,5.35
2023-01-31T17:19:20.202Z,9.40
2023-01-31T17:21:48.651Z,7.75
2023-01-31T17:24:18.419Z,10.40
2023-01-31T17:26:46.082Z,7.00
2023-01-31T17:29:14.308Z,8.30
2023-01-31T17:31:42.909Z,9.88
2023-01-31T17:34:15.183Z,7.88
2023-01-31T17:36:43.856Z,7.68
2023-01-31T17:39:11.289Z,8.10
2023-01-31T17:41:41.355Z,7.85
2023-01-31T17:44:14.358Z,6.55
2023-01-31T17:46:43.237Z,9.07
2023-01-31T17:49:10.622Z,7.72
2023-01-31T17:51:38.005Z,8.90
2023-01-31T17:54:05.219Z,10.20
2023-01-31T17:56:32.868Z,11.00
2023-01-31T17:59:00.184Z,15.05
2023-01-31T18:01:27.438Z,23.13
2023-01-31T18:03:54.513Z,16.23
2023-01-31T18:06:21.696Z,13.30
2023-01-31T18:08:49.025Z,15.18
2023-01-31T18:11:17.577Z,12.48
2023-01-31T18:13:45.141Z,11.77
2023-01-31T18:16:18.470Z,6.47
2023-01-31T18:18:45.839Z,9.80
2023-01-31T18:21:18.226Z,10.63
2023-01-31T18:23:58.025Z,10.65
2023-01-31T18:26:26.530Z,6.88
2023-01-31T18:28:56.263Z,9.10
2023-01-31T18:31:24.173Z,8.93
2023-01-31T18:33:51.265Z,8.15
2023-01-31T18:36:20.495Z,9.10
2023-01-31T18:38:49.523Z,7.90
2023-01-31T18:41:19.531Z,6.78
2023-01-31T18:43:49.001Z,7.75
2023-01-31T18:46:17.384Z,8.85
2023-01-31T18:48:44.756Z,9.15
2023-01-31T18:51:13.890Z,8.80
2023-01-31T18:53:46.231Z,9.07
2023-01-31T18:56:17.348Z,9.07
2023-01-31T18:58:45.419Z,12.98
2023-01-31T19:01:15.662Z,12.13
2023-01-31T19:03:44.688Z,9.70
2023-01-31T19:06:13.473Z,7.97
2023-01-31T19:08:41.048Z,8.13
2023-01-31T19:11:13.642Z,11.05
2023-01-31T19:13:42.153Z,7.70
2023-01-31T19:16:12.659Z,8.70
2023-01-31T19:18:40.521Z,10.32
2023-01-31T19:21:25.243Z,8.45
2023-01-31T19:23:55.816Z,12.88
2023-01-31T19:26:23.743Z,14.13
2023-01-31T19:28:51.561Z,10.48
2023-01-31T19:31:21.520Z,11.32
2023-01-31T19:33:56.848Z,15.25
2023-01-31T19:36:44.943Z,13.80
2023-01-31T19:39:13.329Z,16.65
2023-01-31T19:41:42.596Z,17.48
2023-01-31T19:44:10.351Z,15.60
2023-01-31T19:46:38.204Z,8.85
2023-01-31T19:49:05.565Z,17.75
2023-01-31T19:51:33.835Z,17.63
2023-01-31T19:54:02.998Z,18.67
2023-01-31T19:56:31.548Z,14.88
2023-01-31T19:58:58.868Z,17.35
2023-01-31T20:01:26.246Z,14.48
2023-01-31T20:03:54.701Z,13.10
2023-01-31T20:06:25.837Z,11.68
2023-01-31T20:08:59.587Z,14.63
2023-01-31T20:11:28.616Z,10.63
2023-01-31T20:13:58.054Z,12.00
2023-01-31T20:16:25.791Z,10.90
2023-01-31T20:18:55.764Z,9.07
2023-01-31T20:21:23.312Z,11.85
2023-01-31T20:23:50.636Z,9.50
2023-01-31T20:26:19.530Z,11.93
2023-01-31T20:28:48.219Z,8.82
2023-01-31T20:31:16.845Z,10.30
2023-01-31T20:33:44.481Z,8.10
2023-01-31T20:36:11.982Z,6.25
2023-01-31T20:38:40.188Z,8.00
2023-01-31T20:41:08.843Z,7.00
2023-01-31T20:43:36.975Z,5.45
2023-01-31T20:46:22.069Z,6.00
2023-01-31T20:48:49.666Z,6.00
2023-01-31T20:51:16.894Z,4.38
2023-01-31T20:53:44.357Z,4.78
2023-01-31T20:56:12.219Z,11.18
2023-01-31T20:58:41.715Z,10.15
2023-01-31T21:01:09.833Z,12.90
2023-01-31T21:03:37.938Z,16.15
2023-01-31T21:06:06.230Z,10.57
2023-01-31T21:08:35.738Z,9.48
2023-01-31T21:11:08.675Z,12.73
2023-01-31T21:13:36.993Z,13.23
2023-01-31T21:16:07.046Z,12.77
2023-01-31T21:18:37.767Z,12.70
2023-01-31T21:21:10.101Z,13.38
2023-01-31T21:23:39.343Z,15.50
2023-01-31T21:26:09.761Z,9.50
2023-01-31T21:28:37.692Z,15.15
2023-01-31T21:31:08.959Z,14.82
2023-01-31T21:33:36.634Z,15.32
2023-01-31T21:36:11.843Z,13.95
2023-01-31T21:38:40.042Z,13.57
2023-01-31T21:41:27.436Z,13.85
2023-01-31T21:43:55.264Z,12.27
2023-01-31T21:46:22.793Z,15.13
2023-01-31T21:48:50.364Z,13.13
2023-01-31T21:51:19.621Z,14.65
2023-01-31T21:53:46.906Z,14.13
2023-01-31T21:56:19.995Z,15.90
2023-01-31T21:58:47.537Z,16.25
2023-01-31T22:01:21.302Z,13.68
2023-01-31T22:03:50.604Z,16.33
2023-01-31T22:06:21.155Z,19.70
2023-01-31T22:08:54.029Z,15.07
2023-01-31T22:11:22.130Z,15.27
2023-01-31T22:13:52.668Z,14.07
2023-01-31T22:16:22.087Z,12.50
2023-01-31T22:18:49.162Z,11.23
2023-01-31T22:21:23.238Z,10.70
2023-01-31T22:23:52.891Z,11.63
2023-01-31T22:26:31.971Z,10.32
2023-01-31T22:29:01.877Z,9.18
2023-01-31T22:31:30.191Z,10.70
2023-01-31T22:34:00.258Z,10.98
2023-01-31T22:36:27.912Z,12.68
2023-01-31T22:38:55.337Z,9.65
2023-01-31T22:41:23.085Z,13.98
2023-01-31T22:43:51.593Z,8.27
2023-01-31T22:46:22.433Z,8.50
2023-01-31T22:48:50.161Z,8.82
2023-01-31T22:51:23.395Z,9.38
2023-01-31T22:53:51.003Z,11.30
2023-01-31T22:56:20.869Z,10.80
2023-01-31T22:58:48.893Z,12.95
2023-01-31T23:01:17.514Z,7.97
2023-01-31T23:03:45.317Z,9.07
2023-01-31T23:06:13.726Z,5.82
2023-01-31T23:08:41.782Z,5.70
2023-01-31T23:11:14.348Z,5.65
2023-01-31T23:13:42.457Z,7.17
2023-01-31T23:16:15.061Z,7.10
2023-01-31T23:18:42.453Z,6.53
2023-01-31T23:21:12.432Z,7.35
2023-01-31T23:23:39.514Z,6.63
2023-01-31T23:26:06.904Z,8.43
2023-01-31T23:28:34.051Z,10.40
2023-01-31T23:31:01.747Z,5.25
2023-01-31T23:33:29.015Z,6.43
2023-01-31T23:35:56.644Z,6.07
2023-01-31T23:38:24.831Z,7.68
2023-01-31T23:40:53.265Z,7.00
2023-01-31T23:43:21.547Z,8.63
2023-01-31T23:45:49.515Z,7.63
2023-01-31T23:48:16.620Z,9.95
2023-01-31T23:50:43.973Z,12.68
2023-01-31T23:53:10.986Z,12.02
2023-01-31T23:55:38.214Z,12.93
2023-01-31T23:58:05.284Z,12.38
